sensor_id;sensor_type;location;lat;lon;timestamp;P1;durP1;ratioP1;P2;durP2;ratioP2
59294;SDS011;45067;44.654;20.200;2022-10-22T00:00:12;20.48;;;13.88;;
59294;SDS011;45067;44.654;20.200;2022-10-22T00:02:38;23.42;;;12.85;;
59294;SDS011;45067;44.654;20.200;2022-10-22T00:05:05;17.70;;;11.80;;
59294;SDS011;45067;44.654;20.200;2022-10-22T00:07:31;20.77;;;12.52;;
59294;SDS011;45067;44.654;20.200;2022-10-22T00:09:57;25.85;;;13.50;;
59294;SDS011;45067;44.654;20.200;2022-10-22T00:12:23;24.30;;;15.40;;
59294;SDS011;45067;44.654;20.200;2022-10-22T00:14:50;26.55;;;16.27;;
59294;SDS011;45067;44.654;20.200;2022-10-22T00:17:16;28.10;;;18.48;;
59294;SDS011;45067;44.654;20.200;2022-10-22T00:19:42;23.13;;;15.63;;
59294;SDS011;45067;44.654;20.200;2022-10-22T00:22:08;24.48;;;14.95;;
59294;SDS011;45067;44.654;20.200;2022-10-22T00:24:35;20.02;;;13.48;;
59294;SDS011;45067;44.654;20.200;2022-10-22T00:27:01;25.40;;;13.10;;
59294;SDS011;45067;44.654;20.200;2022-10-22T00:29:29;19.92;;;13.18;;
59294;SDS011;45067;44.654;20.200;2022-10-22T00:31:55;19.92;;;13.13;;
59294;SDS011;45067;44.654;20.200;2022-10-22T00:34:21;22.83;;;13.95;;
59294;SDS011;45067;44.654;20.200;2022-10-22T00:36:48;23.00;;;14.07;;
59294;SDS011;45067;44.654;20.200;2022-10-22T00:39:15;19.08;;;14.13;;
59294;SDS011;45067;44.654;20.200;2022-10-22T00:41:42;20.73;;;14.23;;
59294;SDS011;45067;44.654;20.200;2022-10-22T00:46:54;21.67;;;14.52;;
59294;SDS011;45067;44.654;20.200;2022-10-22T00:49:20;22.10;;;15.65;;
59294;SDS011;45067;44.654;20.200;2022-10-22T00:51:47;27.45;;;15.10;;
59294;SDS011;45067;44.654;20.200;2022-10-22T00:54:13;22.92;;;15.48;;
59294;SDS011;45067;44.654;20.200;2022-10-22T00:56:39;20.88;;;15.27;;
59294;SDS011;45067;44.654;20.200;2022-10-22T00:59:05;21.83;;;15.70;;
59294;SDS011;45067;44.654;20.200;2022-10-22T01:01:32;23.27;;;16.38;;
59294;SDS011;45067;44.654;20.200;2022-10-22T01:03:58;24.17;;;16.52;;
59294;SDS011;45067;44.654;20.200;2022-10-22T01:13:57;28.85;;;17.30;;
59294;SDS011;45067;44.654;20.200;2022-10-22T01:21:39;29.38;;;20.05;;
59294;SDS011;45067;44.654;20.200;2022-10-22T01:29:36;33.83;;;22.13;;
59294;SDS011;45067;44.654;20.200;2022-10-22T01:32:05;33.95;;;21.75;;
59294;SDS011;45067;44.654;20.200;2022-10-22T01:34:32;39.72;;;25.15;;
59294;SDS011;45067;44.654;20.200;2022-10-22T01:36:59;40.13;;;25.30;;
59294;SDS011;45067;44.654;20.200;2022-10-22T01:39:26;40.65;;;24.70;;
59294;SDS011;45067;44.654;20.200;2022-10-22T01:41:54;38.45;;;24.35;;
59294;SDS011;45067;44.654;20.200;2022-10-22T01:44:22;44.83;;;24.00;;
59294;SDS011;45067;44.654;20.200;2022-10-22T01:46:48;36.05;;;22.45;;
59294;SDS011;45067;44.654;20.200;2022-10-22T01:49:17;34.90;;;22.58;;
59294;SDS011;45067;44.654;20.200;2022-10-22T01:52:07;38.72;;;22.70;;
59294;SDS011;45067;44.654;20.200;2022-10-22T01:54:38;28.75;;;19.33;;
59294;SDS011;45067;44.654;20.200;2022-10-22T02:02:23;36.78;;;20.30;;
59294;SDS011;45067;44.654;20.200;2022-10-22T02:04:54;27.63;;;19.27;;
59294;SDS011;45067;44.654;20.200;2022-10-22T02:07:24;27.20;;;19.42;;
59294;SDS011;45067;44.654;20.200;2022-10-22T02:09:50;29.70;;;18.33;;
59294;SDS011;45067;44.654;20.200;2022-10-22T02:12:18;27.95;;;17.92;;
59294;SDS011;45067;44.654;20.200;2022-10-22T02:14:45;27.33;;;16.77;;
59294;SDS011;45067;44.654;20.200;2022-10-22T02:17:14;27.98;;;18.63;;
59294;SDS011;45067;44.654;20.200;2022-10-22T02:20:03;25.98;;;18.52;;
59294;SDS011;45067;44.654;20.200;2022-10-22T02:22:27;26.88;;;17.63;;
59294;SDS011;45067;44.654;20.200;2022-10-22T02:24:53;29.23;;;18.92;;
59294;SDS011;45067;44.654;20.200;2022-10-22T02:27:22;29.67;;;18.98;;
59294;SDS011;45067;44.654;20.200;2022-10-22T02:29:51;27.95;;;17.17;;
59294;SDS011;45067;44.654;20.200;2022-10-22T02:32:20;25.40;;;17.25;;
59294;SDS011;45067;44.654;20.200;2022-10-22T02:34:48;29.52;;;17.60;;
59294;SDS011;45067;44.654;20.200;2022-10-22T02:37:15;26.63;;;17.48;;
59294;SDS011;45067;44.654;20.200;2022-10-22T02:39:42;27.13;;;18.10;;
59294;SDS011;45067;44.654;20.200;2022-10-22T02:42:09;26.88;;;17.02;;
59294;SDS011;45067;44.654;20.200;2022-10-22T02:44:36;28.45;;;17.40;;
59294;SDS011;45067;44.654;20.200;2022-10-22T02:47:03;27.45;;;18.30;;
59294;SDS011;45067;44.654;20.200;2022-10-22T02:49:29;28.08;;;18.00;;
59294;SDS011;45067;44.654;20.200;2022-10-22T02:51:55;26.33;;;17.00;;
59294;SDS011;45067;44.654;20.200;2022-10-22T02:54:21;23.70;;;15.50;;
59294;SDS011;45067;44.654;20.200;2022-10-22T02:56:47;24.75;;;15.10;;
59294;SDS011;45067;44.654;20.200;2022-10-22T02:59:13;25.08;;;15.90;;
59294;SDS011;45067;44.654;20.200;2022-10-22T03:01:39;25.73;;;15.82;;
59294;SDS011;45067;44.654;20.200;2022-10-22T03:04:06;24.20;;;14.20;;
59294;SDS011;45067;44.654;20.200;2022-10-22T03:06:32;22.60;;;15.05;;
59294;SDS011;45067;44.654;20.200;2022-10-22T03:08:58;21.98;;;14.55;;
59294;SDS011;45067;44.654;20.200;2022-10-22T03:11:24;26.38;;;14.45;;
59294;SDS011;45067;44.654;20.200;2022-10-22T03:13:50;22.50;;;14.10;;
59294;SDS011;45067;44.654;20.200;2022-10-22T03:16:16;21.27;;;14.48;;
59294;SDS011;45067;44.654;20.200;2022-10-22T03:18:42;21.88;;;14.15;;
59294;SDS011;45067;44.654;20.200;2022-10-22T03:21:10;18.63;;;13.30;;
59294;SDS011;45067;44.654;20.200;2022-10-22T03:23:39;22.20;;;14.35;;
59294;SDS011;45067;44.654;20.200;2022-10-22T03:26:05;20.70;;;13.48;;
59294;SDS011;45067;44.654;20.200;2022-10-22T03:28:32;24.20;;;13.73;;
59294;SDS011;45067;44.654;20.200;2022-10-22T03:30:59;18.95;;;13.30;;
59294;SDS011;45067;44.654;20.200;2022-10-22T03:33:25;21.75;;;13.98;;
59294;SDS011;45067;44.654;20.200;2022-10-22T03:35:51;19.15;;;12.85;;
59294;SDS011;45067;44.654;20.200;2022-10-22T03:38:17;25.23;;;13.75;;
59294;SDS011;45067;44.654;20.200;2022-10-22T03:40:43;27.58;;;18.95;;
59294;SDS011;45067;44.654;20.200;2022-10-22T03:43:10;33.38;;;22.83;;
59294;SDS011;45067;44.654;20.200;2022-10-22T03:45:37;27.83;;;17.80;;
59294;SDS011;45067;44.654;20.200;2022-10-22T03:48:03;28.45;;;17.23;;
59294;SDS011;45067;44.654;20.200;2022-10-22T03:50:29;26.45;;;17.08;;
59294;SDS011;45067;44.654;20.200;2022-10-22T03:52:55;26.70;;;15.80;;
59294;SDS011;45067;44.654;20.200;2022-10-22T03:55:22;22.88;;;14.32;;
59294;SDS011;45067;44.654;20.200;2022-10-22T03:57:48;22.35;;;13.70;;
59294;SDS011;45067;44.654;20.200;2022-10-22T04:00:14;24.05;;;14.07;;
59294;SDS011;45067;44.654;20.200;2022-10-22T04:02:41;28.33;;;14.27;;
59294;SDS011;45067;44.654;20.200;2022-10-22T04:05:07;24.63;;;15.52;;
59294;SDS011;45067;44.654;20.200;2022-10-22T04:07:33;21.33;;;14.40;;
59294;SDS011;45067;44.654;20.200;2022-10-22T04:09:59;22.55;;;14.82;;
59294;SDS011;45067;44.654;20.200;2022-10-22T04:12:25;24.25;;;14.73;;
59294;SDS011;45067;44.654;20.200;2022-10-22T04:14:51;19.63;;;13.32;;
59294;SDS011;45067;44.654;20.200;2022-10-22T04:17:17;19.27;;;12.27;;
59294;SDS011;45067;44.654;20.200;2022-10-22T04:19:43;17.75;;;12.55;;
59294;SDS011;45067;44.654;20.200;2022-10-22T04:22:09;22.33;;;12.45;;
59294;SDS011;45067;44.654;20.200;2022-10-22T04:24:35;19.35;;;12.75;;
59294;SDS011;45067;44.654;20.200;2022-10-22T04:27:02;19.20;;;12.98;;
59294;SDS011;45067;44.654;20.200;2022-10-22T04:29:28;19.38;;;12.70;;
59294;SDS011;45067;44.654;20.200;2022-10-22T04:31:54;21.80;;;13.82;;
59294;SDS011;45067;44.654;20.200;2022-10-22T04:34:20;19.95;;;13.05;;
59294;SDS011;45067;44.654;20.200;2022-10-22T04:36:46;19.95;;;11.93;;
59294;SDS011;45067;44.654;20.200;2022-10-22T04:39:13;19.02;;;12.45;;
59294;SDS011;45067;44.654;20.200;2022-10-22T04:41:39;21.00;;;12.40;;
59294;SDS011;45067;44.654;20.200;2022-10-22T04:44:05;21.88;;;13.50;;
59294;SDS011;45067;44.654;20.200;2022-10-22T04:46:32;17.95;;;11.63;;
59294;SDS011;45067;44.654;20.200;2022-10-22T04:48:59;19.30;;;11.73;;
59294;SDS011;45067;44.654;20.200;2022-10-22T04:51:27;18.90;;;11.52;;
59294;SDS011;45067;44.654;20.200;2022-10-22T04:53:55;18.67;;;11.70;;
59294;SDS011;45067;44.654;20.200;2022-10-22T04:56:23;18.58;;;11.10;;
59294;SDS011;45067;44.654;20.200;2022-10-22T04:58:53;18.83;;;11.70;;
59294;SDS011;45067;44.654;20.200;2022-10-22T05:01:20;18.33;;;12.00;;
59294;SDS011;45067;44.654;20.200;2022-10-22T05:03:47;19.60;;;12.27;;
59294;SDS011;45067;44.654;20.200;2022-10-22T05:06:14;16.85;;;11.80;;
59294;SDS011;45067;44.654;20.200;2022-10-22T05:08:40;16.73;;;10.73;;
59294;SDS011;45067;44.654;20.200;2022-10-22T05:11:14;19.52;;;10.88;;
59294;SDS011;45067;44.654;20.200;2022-10-22T05:13:41;19.25;;;11.00;;
59294;SDS011;45067;44.654;20.200;2022-10-22T05:16:07;16.77;;;10.75;;
59294;SDS011;45067;44.654;20.200;2022-10-22T05:18:34;17.70;;;10.65;;
59294;SDS011;45067;44.654;20.200;2022-10-22T05:21:00;16.42;;;10.70;;
59294;SDS011;45067;44.654;20.200;2022-10-22T05:23:26;15.70;;;10.95;;
59294;SDS011;45067;44.654;20.200;2022-10-22T05:25:53;18.83;;;10.77;;
59294;SDS011;45067;44.654;20.200;2022-10-22T05:28:19;17.17;;;10.60;;
59294;SDS011;45067;44.654;20.200;2022-10-22T05:30:51;23.98;;;11.13;;
59294;SDS011;45067;44.654;20.200;2022-10-22T05:33:18;19.35;;;11.38;;
59294;SDS011;45067;44.654;20.200;2022-10-22T05:35:44;24.45;;;11.90;;
59294;SDS011;45067;44.654;20.200;2022-10-22T05:38:10;32.53;;;17.35;;
59294;SDS011;45067;44.654;20.200;2022-10-22T05:40:57;25.10;;;13.38;;
59294;SDS011;45067;44.654;20.200;2022-10-22T05:43:22;16.45;;;10.68;;
59294;SDS011;45067;44.654;20.200;2022-10-22T05:45:48;21.00;;;12.75;;
59294;SDS011;45067;44.654;20.200;2022-10-22T05:48:15;19.42;;;12.45;;
59294;SDS011;45067;44.654;20.200;2022-10-22T05:50:41;31.92;;;17.45;;
59294;SDS011;45067;44.654;20.200;2022-10-22T05:53:08;20.23;;;12.02;;
59294;SDS011;45067;44.654;20.200;2022-10-22T05:55:35;22.13;;;14.05;;
59294;SDS011;45067;44.654;20.200;2022-10-22T05:58:03;37.72;;;18.13;;
59294;SDS011;45067;44.654;20.200;2022-10-22T06:00:30;31.58;;;19.40;;
59294;SDS011;45067;44.654;20.200;2022-10-22T06:02:58;29.85;;;17.40;;
59294;SDS011;45067;44.654;20.200;2022-10-22T06:05:24;25.52;;;17.80;;
59294;SDS011;45067;44.654;20.200;2022-10-22T06:07:50;33.72;;;18.05;;
59294;SDS011;45067;44.654;20.200;2022-10-22T06:10:17;29.38;;;18.05;;
59294;SDS011;45067;44.654;20.200;2022-10-22T06:12:45;33.30;;;19.15;;
59294;SDS011;45067;44.654;20.200;2022-10-22T06:15:11;34.33;;;17.92;;
59294;SDS011;45067;44.654;20.200;2022-10-22T06:17:38;35.63;;;20.48;;
59294;SDS011;45067;44.654;20.200;2022-10-22T06:20:07;34.33;;;19.70;;
59294;SDS011;45067;44.654;20.200;2022-10-22T06:22:33;39.33;;;21.63;;
59294;SDS011;45067;44.654;20.200;2022-10-22T06:24:59;34.45;;;18.88;;
59294;SDS011;45067;44.654;20.200;2022-10-22T06:27:25;30.88;;;18.83;;
59294;SDS011;45067;44.654;20.200;2022-10-22T06:29:51;35.60;;;20.58;;
59294;SDS011;45067;44.654;20.200;2022-10-22T06:32:17;39.13;;;21.92;;
59294;SDS011;45067;44.654;20.200;2022-10-22T06:34:46;37.75;;;18.30;;
59294;SDS011;45067;44.654;20.200;2022-10-22T06:37:14;42.50;;;19.50;;
59294;SDS011;45067;44.654;20.200;2022-10-22T06:39:40;34.72;;;18.45;;
59294;SDS011;45067;44.654;20.200;2022-10-22T06:42:06;38.80;;;18.13;;
59294;SDS011;45067;44.654;20.200;2022-10-22T06:44:33;31.45;;;17.23;;
59294;SDS011;45067;44.654;20.200;2022-10-22T06:46:59;40.22;;;19.00;;
59294;SDS011;45067;44.654;20.200;2022-10-22T06:49:26;38.67;;;22.48;;
59294;SDS011;45067;44.654;20.200;2022-10-22T06:51:52;46.60;;;24.55;;
59294;SDS011;45067;44.654;20.200;2022-10-22T06:54:19;41.92;;;23.25;;
59294;SDS011;45067;44.654;20.200;2022-10-22T06:56:45;35.53;;;21.98;;
59294;SDS011;45067;44.654;20.200;2022-10-22T06:59:11;37.95;;;21.90;;
59294;SDS011;45067;44.654;20.200;2022-10-22T07:01:38;35.60;;;19.80;;
59294;SDS011;45067;44.654;20.200;2022-10-22T07:04:04;34.58;;;20.60;;
59294;SDS011;45067;44.654;20.200;2022-10-22T07:06:30;32.85;;;20.15;;
59294;SDS011;45067;44.654;20.200;2022-10-22T07:08:57;29.80;;;17.40;;
59294;SDS011;45067;44.654;20.200;2022-10-22T07:11:25;28.80;;;17.02;;
59294;SDS011;45067;44.654;20.200;2022-10-22T07:13:55;24.77;;;16.80;;
59294;SDS011;45067;44.654;20.200;2022-10-22T07:18:48;21.85;;;15.07;;
59294;SDS011;45067;44.654;20.200;2022-10-22T07:21:15;23.20;;;14.98;;
59294;SDS011;45067;44.654;20.200;2022-10-22T07:23:42;25.40;;;14.40;;
59294;SDS011;45067;44.654;20.200;2022-10-22T07:26:10;22.50;;;14.57;;
59294;SDS011;45067;44.654;20.200;2022-10-22T07:28:37;25.88;;;16.45;;
59294;SDS011;45067;44.654;20.200;2022-10-22T07:31:05;23.02;;;14.93;;
59294;SDS011;45067;44.654;20.200;2022-10-22T07:33:32;28.02;;;16.88;;
59294;SDS011;45067;44.654;20.200;2022-10-22T07:35:58;23.75;;;15.63;;
59294;SDS011;45067;44.654;20.200;2022-10-22T07:38:25;29.08;;;16.80;;
59294;SDS011;45067;44.654;20.200;2022-10-22T07:40:51;26.58;;;16.52;;
59294;SDS011;45067;44.654;20.200;2022-10-22T07:43:17;30.23;;;16.98;;
59294;SDS011;45067;44.654;20.200;2022-10-22T07:45:43;29.77;;;15.68;;
59294;SDS011;45067;44.654;20.200;2022-10-22T07:48:10;25.13;;;15.27;;
59294;SDS011;45067;44.654;20.200;2022-10-22T07:50:36;26.63;;;15.25;;
59294;SDS011;45067;44.654;20.200;2022-10-22T07:53:02;27.98;;;14.70;;
59294;SDS011;45067;44.654;20.200;2022-10-22T07:55:30;23.35;;;13.65;;
59294;SDS011;45067;44.654;20.200;2022-10-22T07:57:59;24.70;;;13.85;;
59294;SDS011;45067;44.654;20.200;2022-10-22T08:00:25;22.35;;;13.05;;
59294;SDS011;45067;44.654;20.200;2022-10-22T08:02:51;19.92;;;13.13;;
59294;SDS011;45067;44.654;20.200;2022-10-22T08:05:20;19.85;;;12.82;;
59294;SDS011;45067;44.654;20.200;2022-10-22T08:07:46;22.38;;;13.30;;
59294;SDS011;45067;44.654;20.200;2022-10-22T08:10:12;23.30;;;13.27;;
59294;SDS011;45067;44.654;20.200;2022-10-22T08:12:39;23.83;;;13.15;;
59294;SDS011;45067;44.654;20.200;2022-10-22T08:15:05;21.50;;;13.40;;
59294;SDS011;45067;44.654;20.200;2022-10-22T08:17:32;24.55;;;13.23;;
59294;SDS011;45067;44.654;20.200;2022-10-22T08:19:58;23.15;;;13.15;;
59294;SDS011;45067;44.654;20.200;2022-10-22T08:22:24;21.52;;;12.75;;
59294;SDS011;45067;44.654;20.200;2022-10-22T08:28:06;19.20;;;12.25;;
59294;SDS011;45067;44.654;20.200;2022-10-22T08:30:35;21.75;;;11.77;;
59294;SDS011;45067;44.654;20.200;2022-10-22T08:33:03;19.77;;;11.10;;
59294;SDS011;45067;44.654;20.200;2022-10-22T08:35:29;19.13;;;12.40;;
59294;SDS011;45067;44.654;20.200;2022-10-22T08:37:55;19.10;;;12.68;;
59294;SDS011;45067;44.654;20.200;2022-10-22T08:40:29;18.40;;;11.50;;
59294;SDS011;45067;44.654;20.200;2022-10-22T08:50:44;20.42;;;11.95;;
59294;SDS011;45067;44.654;20.200;2022-10-22T08:53:12;20.30;;;12.43;;
59294;SDS011;45067;44.654;20.200;2022-10-22T08:55:44;16.73;;;11.30;;
59294;SDS011;45067;44.654;20.200;2022-10-22T09:03:56;19.00;;;11.52;;
59294;SDS011;45067;44.654;20.200;2022-10-22T09:06:24;21.42;;;11.55;;
59294;SDS011;45067;44.654;20.200;2022-10-22T09:08:51;23.45;;;10.82;;
59294;SDS011;45067;44.654;20.200;2022-10-22T09:11:34;21.48;;;10.90;;
59294;SDS011;45067;44.654;20.200;2022-10-22T09:14:01;20.55;;;10.70;;
59294;SDS011;45067;44.654;20.200;2022-10-22T09:24:35;21.70;;;10.68;;
59294;SDS011;45067;44.654;20.200;2022-10-22T09:27:09;15.98;;;10.88;;
59294;SDS011;45067;44.654;20.200;2022-10-22T09:29:39;25.95;;;11.68;;
59294;SDS011;45067;44.654;20.200;2022-10-22T09:32:05;17.70;;;10.02;;
59294;SDS011;45067;44.654;20.200;2022-10-22T09:34:33;28.45;;;17.38;;
59294;SDS011;45067;44.654;20.200;2022-10-22T09:37:00;28.08;;;15.98;;
59294;SDS011;45067;44.654;20.200;2022-10-22T09:39:28;20.67;;;12.25;;
59294;SDS011;45067;44.654;20.200;2022-10-22T09:41:56;18.15;;;11.00;;
59294;SDS011;45067;44.654;20.200;2022-10-22T09:44:22;20.05;;;11.95;;
59294;SDS011;45067;44.654;20.200;2022-10-22T09:46:48;21.50;;;11.30;;
59294;SDS011;45067;44.654;20.200;2022-10-22T09:49:16;21.42;;;12.18;;
59294;SDS011;45067;44.654;20.200;2022-10-22T09:51:50;15.95;;;11.00;;
59294;SDS011;45067;44.654;20.200;2022-10-22T09:57:05;21.90;;;9.82;;
59294;SDS011;45067;44.654;20.200;2022-10-22T09:59:35;18.00;;;10.43;;
59294;SDS011;45067;44.654;20.200;2022-10-22T10:04:34;20.15;;;10.60;;
59294;SDS011;45067;44.654;20.200;2022-10-22T10:07:11;16.10;;;10.05;;
59294;SDS011;45067;44.654;20.200;2022-10-22T10:09:39;20.75;;;10.38;;
59294;SDS011;45067;44.654;20.200;2022-10-22T10:17:12;16.88;;;10.20;;
59294;SDS011;45067;44.654;20.200;2022-10-22T10:22:43;17.85;;;10.18;;
59294;SDS011;45067;44.654;20.200;2022-10-22T10:26:15;18.17;;;10.38;;
59294;SDS011;45067;44.654;20.200;2022-10-22T10:28:20;18.67;;;11.05;;
59294;SDS011;45067;44.654;20.200;2022-10-22T10:30:54;19.63;;;10.52;;
59294;SDS011;45067;44.654;20.200;2022-10-22T10:33:55;18.38;;;10.20;;
59294;SDS011;45067;44.654;20.200;2022-10-22T10:41:46;19.67;;;11.45;;
59294;SDS011;45067;44.654;20.200;2022-10-22T10:49:23;17.75;;;11.18;;
59294;SDS011;45067;44.654;20.200;2022-10-22T10:51:58;18.38;;;11.38;;
59294;SDS011;45067;44.654;20.200;2022-10-22T11:04:32;23.95;;;11.32;;
59294;SDS011;45067;44.654;20.200;2022-10-22T11:07:00;21.08;;;10.65;;
59294;SDS011;45067;44.654;20.200;2022-10-22T11:09:30;19.02;;;11.10;;
59294;SDS011;45067;44.654;20.200;2022-10-22T11:12:18;22.25;;;10.80;;
59294;SDS011;45067;44.654;20.200;2022-10-22T11:14:54;16.90;;;10.90;;
59294;SDS011;45067;44.654;20.200;2022-10-22T11:17:22;17.77;;;11.27;;
59294;SDS011;45067;44.654;20.200;2022-10-22T11:22:37;18.20;;;10.68;;
59294;SDS011;45067;44.654;20.200;2022-10-22T11:27:41;25.00;;;13.38;;
59294;SDS011;45067;44.654;20.200;2022-10-22T11:30:12;19.23;;;12.85;;
59294;SDS011;45067;44.654;20.200;2022-10-22T11:32:40;21.50;;;13.23;;
59294;SDS011;45067;44.654;20.200;2022-10-22T11:35:08;23.38;;;14.20;;
59294;SDS011;45067;44.654;20.200;2022-10-22T11:37:37;25.30;;;13.90;;
59294;SDS011;45067;44.654;20.200;2022-10-22T11:40:09;21.00;;;11.80;;
59294;SDS011;45067;44.654;20.200;2022-10-22T11:42:40;17.42;;;10.57;;
59294;SDS011;45067;44.654;20.200;2022-10-22T11:50:27;18.17;;;11.70;;
59294;SDS011;45067;44.654;20.200;2022-10-22T11:58:24;15.52;;;10.02;;
59294;SDS011;45067;44.654;20.200;2022-10-22T12:00:50;16.58;;;9.98;;
59294;SDS011;45067;44.654;20.200;2022-10-22T12:16:36;16.55;;;11.50;;
59294;SDS011;45067;44.654;20.200;2022-10-22T12:21:35;16.73;;;10.30;;
59294;SDS011;45067;44.654;20.200;2022-10-22T12:24:02;19.88;;;12.52;;
59294;SDS011;45067;44.654;20.200;2022-10-22T12:26:30;20.55;;;13.75;;
59294;SDS011;45067;44.654;20.200;2022-10-22T12:28:59;21.17;;;12.48;;
59294;SDS011;45067;44.654;20.200;2022-10-22T12:31:26;20.58;;;11.07;;
59294;SDS011;45067;44.654;20.200;2022-10-22T12:33:58;18.35;;;10.13;;
59294;SDS011;45067;44.654;20.200;2022-10-22T12:36:25;17.70;;;10.98;;
59294;SDS011;45067;44.654;20.200;2022-10-22T12:38:51;18.05;;;11.13;;
59294;SDS011;45067;44.654;20.200;2022-10-22T12:41:19;17.27;;;10.80;;
59294;SDS011;45067;44.654;20.200;2022-10-22T12:43:46;17.85;;;11.32;;
59294;SDS011;45067;44.654;20.200;2022-10-22T12:46:13;19.02;;;11.40;;
59294;SDS011;45067;44.654;20.200;2022-10-22T12:48:43;17.92;;;11.27;;
59294;SDS011;45067;44.654;20.200;2022-10-22T12:51:13;18.40;;;11.07;;
59294;SDS011;45067;44.654;20.200;2022-10-22T12:53:42;18.15;;;10.60;;
59294;SDS011;45067;44.654;20.200;2022-10-22T12:56:11;16.90;;;9.80;;
59294;SDS011;45067;44.654;20.200;2022-10-22T12:58:38;14.48;;;10.38;;
59294;SDS011;45067;44.654;20.200;2022-10-22T13:01:05;16.38;;;10.20;;
59294;SDS011;45067;44.654;20.200;2022-10-22T13:03:35;20.30;;;10.43;;
59294;SDS011;45067;44.654;20.200;2022-10-22T13:08:44;17.90;;;10.18;;
59294;SDS011;45067;44.654;20.200;2022-10-22T13:11:19;21.48;;;10.75;;
59294;SDS011;45067;44.654;20.200;2022-10-22T13:13:46;13.85;;;9.80;;
59294;SDS011;45067;44.654;20.200;2022-10-22T13:16:12;17.05;;;9.57;;
59294;SDS011;45067;44.654;20.200;2022-10-22T13:18:39;16.92;;;10.05;;
59294;SDS011;45067;44.654;20.200;2022-10-22T13:21:05;18.35;;;10.63;;
59294;SDS011;45067;44.654;20.200;2022-10-22T13:23:32;16.95;;;11.25;;
59294;SDS011;45067;44.654;20.200;2022-10-22T13:25:59;16.73;;;10.13;;
59294;SDS011;45067;44.654;20.200;2022-10-22T13:28:26;15.52;;;10.38;;
59294;SDS011;45067;44.654;20.200;2022-10-22T13:30:54;18.00;;;9.95;;
59294;SDS011;45067;44.654;20.200;2022-10-22T13:35:52;18.20;;;10.25;;
59294;SDS011;45067;44.654;20.200;2022-10-22T13:38:19;14.05;;;9.55;;
59294;SDS011;45067;44.654;20.200;2022-10-22T13:40:46;17.65;;;10.48;;
59294;SDS011;45067;44.654;20.200;2022-10-22T13:43:12;19.10;;;10.45;;
59294;SDS011;45067;44.654;20.200;2022-10-22T13:45:38;16.60;;;10.55;;
59294;SDS011;45067;44.654;20.200;2022-10-22T13:48:04;16.75;;;10.27;;
59294;SDS011;45067;44.654;20.200;2022-10-22T13:50:31;28.95;;;10.32;;
59294;SDS011;45067;44.654;20.200;2022-10-22T13:52:57;15.48;;;10.80;;
59294;SDS011;45067;44.654;20.200;2022-10-22T13:55:27;18.95;;;10.50;;
59294;SDS011;45067;44.654;20.200;2022-10-22T13:57:59;17.00;;;9.70;;
59294;SDS011;45067;44.654;20.200;2022-10-22T14:00:28;17.10;;;10.10;;
59294;SDS011;45067;44.654;20.200;2022-10-22T14:02:56;14.82;;;10.43;;
59294;SDS011;45067;44.654;20.200;2022-10-22T14:05:23;13.32;;;10.15;;
59294;SDS011;45067;44.654;20.200;2022-10-22T14:07:49;18.48;;;9.73;;
59294;SDS011;45067;44.654;20.200;2022-10-22T14:10:17;20.60;;;11.57;;
59294;SDS011;45067;44.654;20.200;2022-10-22T14:12:44;15.73;;;10.60;;
59294;SDS011;45067;44.654;20.200;2022-10-22T14:15:10;17.17;;;11.63;;
59294;SDS011;45067;44.654;20.200;2022-10-22T14:17:37;17.83;;;10.27;;
59294;SDS011;45067;44.654;20.200;2022-10-22T14:20:04;19.90;;;10.88;;
59294;SDS011;45067;44.654;20.200;2022-10-22T14:22:30;22.10;;;12.02;;
59294;SDS011;45067;44.654;20.200;2022-10-22T14:24:56;20.33;;;11.82;;
59294;SDS011;45067;44.654;20.200;2022-10-22T14:27:22;21.17;;;12.98;;
59294;SDS011;45067;44.654;20.200;2022-10-22T14:29:48;22.73;;;13.43;;
59294;SDS011;45067;44.654;20.200;2022-10-22T14:32:15;23.63;;;15.07;;
59294;SDS011;45067;44.654;20.200;2022-10-22T14:34:44;23.05;;;13.30;;
59294;SDS011;45067;44.654;20.200;2022-10-22T14:37:17;18.73;;;11.98;;
59294;SDS011;45067;44.654;20.200;2022-10-22T14:39:44;27.50;;;14.75;;
59294;SDS011;45067;44.654;20.200;2022-10-22T14:42:14;17.95;;;13.00;;
59294;SDS011;45067;44.654;20.200;2022-10-22T14:44:40;19.17;;;11.93;;
59294;SDS011;45067;44.654;20.200;2022-10-22T14:47:06;36.75;;;21.67;;
59294;SDS011;45067;44.654;20.200;2022-10-22T14:49:32;29.38;;;16.75;;
59294;SDS011;45067;44.654;20.200;2022-10-22T14:51:59;24.83;;;15.00;;
59294;SDS011;45067;44.654;20.200;2022-10-22T14:54:25;25.67;;;14.90;;
59294;SDS011;45067;44.654;20.200;2022-10-22T14:56:51;28.00;;;15.55;;
59294;SDS011;45067;44.654;20.200;2022-10-22T14:59:17;26.05;;;15.15;;
59294;SDS011;45067;44.654;20.200;2022-10-22T15:01:46;25.02;;;15.80;;
59294;SDS011;45067;44.654;20.200;2022-10-22T15:04:15;23.45;;;14.57;;
59294;SDS011;45067;44.654;20.200;2022-10-22T15:07:01;23.20;;;14.25;;
59294;SDS011;45067;44.654;20.200;2022-10-22T15:09:27;27.98;;;15.07;;
59294;SDS011;45067;44.654;20.200;2022-10-22T15:11:53;24.05;;;14.82;;
59294;SDS011;45067;44.654;20.200;2022-10-22T15:14:19;22.40;;;14.13;;
59294;SDS011;45067;44.654;20.200;2022-10-22T15:16:46;22.50;;;13.63;;
59294;SDS011;45067;44.654;20.200;2022-10-22T15:19:12;24.92;;;13.63;;
59294;SDS011;45067;44.654;20.200;2022-10-22T15:21:38;22.17;;;14.48;;
59294;SDS011;45067;44.654;20.200;2022-10-22T15:24:04;31.17;;;16.90;;
59294;SDS011;45067;44.654;20.200;2022-10-22T15:26:30;32.25;;;17.65;;
59294;SDS011;45067;44.654;20.200;2022-10-22T15:28:56;26.70;;;15.75;;
59294;SDS011;45067;44.654;20.200;2022-10-22T15:34:07;24.10;;;15.00;;
59294;SDS011;45067;44.654;20.200;2022-10-22T15:36:33;27.33;;;16.10;;
59294;SDS011;45067;44.654;20.200;2022-10-22T15:39:04;21.77;;;14.10;;
59294;SDS011;45067;44.654;20.200;2022-10-22T15:41:30;29.80;;;16.83;;
59294;SDS011;45067;44.654;20.200;2022-10-22T15:43:56;28.50;;;19.35;;
59294;SDS011;45067;44.654;20.200;2022-10-22T15:46:22;23.23;;;15.93;;
59294;SDS011;45067;44.654;20.200;2022-10-22T15:48:49;23.77;;;17.05;;
59294;SDS011;45067;44.654;20.200;2022-10-22T15:51:17;46.17;;;32.17;;
59294;SDS011;45067;44.654;20.200;2022-10-22T15:53:49;56.92;;;42.28;;
59294;SDS011;45067;44.654;20.200;2022-10-22T15:56:15;58.67;;;38.83;;
59294;SDS011;45067;44.654;20.200;2022-10-22T15:58:41;58.20;;;37.92;;
59294;SDS011;45067;44.654;20.200;2022-10-22T16:01:09;28.75;;;17.95;;
59294;SDS011;45067;44.654;20.200;2022-10-22T16:03:35;31.20;;;19.35;;
59294;SDS011;45067;44.654;20.200;2022-10-22T16:06:02;37.75;;;21.30;;
59294;SDS011;45067;44.654;20.200;2022-10-22T16:08:29;49.00;;;28.30;;
59294;SDS011;45067;44.654;20.200;2022-10-22T16:10:55;59.65;;;33.33;;
59294;SDS011;45067;44.654;20.200;2022-10-22T16:13:22;64.47;;;37.30;;
59294;SDS011;45067;44.654;20.200;2022-10-22T16:15:49;45.97;;;28.90;;
59294;SDS011;45067;44.654;20.200;2022-10-22T16:18:16;35.97;;;22.20;;